createdAt,value
2018-08-18T00:00:01.167Z,20.50
2018-08-18T00:02:38.894Z,20.50
2018-08-18T00:05:12.812Z,20.30
2018-08-18T00:07:45.798Z,20.10
2018-08-18T00:10:25.253Z,19.90
2018-08-18T00:12:57.624Z,19.70
2018-08-18T00:15:29.815Z,19.60
2018-08-18T00:18:04.098Z,19.40
2018-08-18T00:20:36.626Z,19.50
2018-08-18T00:23:12.271Z,19.60
2018-08-18T00:25:54.960Z,19.60
2018-08-18T00:28:29.443Z,19.60
2018-08-18T00:31:02.435Z,19.80
2018-08-18T00:33:42.707Z,19.90
2018-08-18T00:36:16.115Z,20.10
2018-08-18T00:38:48.767Z,20.20
2018-08-18T00:41:21.097Z,20.40
2018-08-18T00:43:55.083Z,20.40
2018-08-18T00:46:29.378Z,20.50
2018-08-18T00:49:01.790Z,20.50
2018-08-18T00:51:36.707Z,20.60
2018-08-18T00:54:11.089Z,20.50
2018-08-18T00:56:44.482Z,20.60
2018-08-18T00:59:17.319Z,20.60
2018-08-18T01:01:49.490Z,20.50
2018-08-18T01:04:22.137Z,20.60
2018-08-18T01:06:54.520Z,20.60
2018-08-18T01:09:26.720Z,20.80
2018-08-18T01:11:59.613Z,20.80
2018-08-18T01:14:32.776Z,20.80
2018-08-18T01:17:05.025Z,20.30
2018-08-18T01:19:37.202Z,20.30
2018-08-18T01:22:12.081Z,20.50
2018-08-18T01:24:44.883Z,20.40
2018-08-18T01:27:18.710Z,20.20
2018-08-18T01:29:55.718Z,20.10
2018-08-18T01:32:28.044Z,19.70
2018-08-18T01:35:00.814Z,19.50
2018-08-18T01:37:34.346Z,19.30
2018-08-18T01:40:06.264Z,19.40
2018-08-18T01:42:39.790Z,19.40
2018-08-18T01:45:13.520Z,19.60
2018-08-18T01:47:45.697Z,19.70
2018-08-18T01:50:21.116Z,19.90
2018-08-18T01:52:53.128Z,20.00
2018-08-18T01:55:25.341Z,20.00
2018-08-18T01:57:57.467Z,19.90
2018-08-18T02:00:30.271Z,20.00
2018-08-18T02:03:03.264Z,20.00
2018-08-18T02:05:35.609Z,20.10
2018-08-18T02:08:08.113Z,20.20
2018-08-18T02:10:40.394Z,20.20
2018-08-18T02:13:13.040Z,20.20
2018-08-18T02:15:46.293Z,20.20
2018-08-18T02:18:18.416Z,20.10
2018-08-18T02:20:50.768Z,19.90
2018-08-18T02:23:22.876Z,19.40
2018-08-18T02:25:55.348Z,19.20
2018-08-18T02:28:32.235Z,19.30
2018-08-18T02:31:04.470Z,19.10
2018-08-18T02:33:36.686Z,19.20
2018-08-18T02:36:08.963Z,19.30
2018-08-18T02:38:45.609Z,19.20
2018-08-18T02:41:17.718Z,19.20
2018-08-18T02:43:48.435Z,19.30
2018-08-18T02:46:26.941Z,19.20
2018-08-18T02:48:58.991Z,19.10
2018-08-18T02:51:31.720Z,19.20
2018-08-18T02:54:04.275Z,19.30
2018-08-18T02:56:44.064Z,19.20
2018-08-18T02:59:16.360Z,19.40
2018-08-18T03:01:48.645Z,19.10
2018-08-18T03:04:20.722Z,18.90
2018-08-18T03:06:53.600Z,19.00
2018-08-18T03:09:25.731Z,19.20
2018-08-18T03:11:56.281Z,19.10
2018-08-18T03:14:26.847Z,19.20
2018-08-18T03:16:57.373Z,19.20
2018-08-18T03:19:27.822Z,19.40
2018-08-18T03:21:59.818Z,19.50
2018-08-18T03:24:31.998Z,19.50
2018-08-18T03:27:04.368Z,19.50
2018-08-18T03:29:44.708Z,19.40
2018-08-18T03:32:17.593Z,19.20
2018-08-18T03:34:50.338Z,19.20
2018-08-18T03:37:30.409Z,19.30
2018-08-18T03:40:02.854Z,19.60
2018-08-18T03:42:41.804Z,19.60
2018-08-18T03:45:14.021Z,19.60
2018-08-18T03:47:47.250Z,19.70
2018-08-18T03:50:19.591Z,19.70
2018-08-18T03:52:51.744Z,19.60
2018-08-18T03:55:35.708Z,19.60
2018-08-18T03:58:08.256Z,19.60
2018-08-18T04:00:41.154Z,19.70
2018-08-18T04:03:13.381Z,19.60
2018-08-18T04:05:45.983Z,19.60
2018-08-18T04:08:18.402Z,19.50
2018-08-18T04:10:50.644Z,19.70
2018-08-18T04:13:22.900Z,19.80
2018-08-18T04:15:54.931Z,19.70
2018-08-18T04:18:27.131Z,19.70
2018-08-18T04:20:59.470Z,19.80
2018-08-18T04:23:31.593Z,19.90
2018-08-18T04:26:03.713Z,19.90
2018-08-18T04:28:39.906Z,20.00
2018-08-18T04:31:12.724Z,20.10
2018-08-18T04:33:45.168Z,20.00
2018-08-18T04:36:17.593Z,19.90
2018-08-18T04:38:49.861Z,19.80
2018-08-18T04:41:22.271Z,19.80
2018-08-18T04:43:54.556Z,19.80
2018-08-18T04:46:26.838Z,19.70
2018-08-18T04:48:59.456Z,19.60
2018-08-18T04:51:31.757Z,19.60
2018-08-18T04:54:04.863Z,19.60
2018-08-18T04:56:37.738Z,19.50
2018-08-18T04:59:10.136Z,19.50
2018-08-18T05:01:43.526Z,19.50
2018-08-18T05:04:15.519Z,19.40
2018-08-18T05:06:49.010Z,19.50
2018-08-18T05:09:21.065Z,19.40
2018-08-18T05:11:53.358Z,19.50
2018-08-18T05:14:25.437Z,19.50
2018-08-18T05:16:57.569Z,19.40
2018-08-18T05:19:29.510Z,19.40
2018-08-18T05:22:01.749Z,19.40
2018-08-18T05:24:34.633Z,19.40
2018-08-18T05:27:11.205Z,19.40
2018-08-18T05:29:43.930Z,19.50
2018-08-18T05:32:16.097Z,19.50
2018-08-18T05:34:48.353Z,19.50
2018-08-18T05:37:20.757Z,19.50
2018-08-18T05:39:53.142Z,19.50
2018-08-18T05:42:25.537Z,19.60
2018-08-18T05:44:57.823Z,19.60
2018-08-18T05:47:29.888Z,19.50
2018-08-18T05:50:03.552Z,19.50
2018-08-18T05:52:35.777Z,19.50
2018-08-18T05:55:07.955Z,19.50
2018-08-18T05:57:40.885Z,19.50
2018-08-18T06:00:17.523Z,19.50
2018-08-18T06:02:54.061Z,19.50
2018-08-18T06:05:28.373Z,19.50
2018-08-18T06:08:01.779Z,19.50
2018-08-18T06:10:34.254Z,19.50
2018-08-18T06:13:24.015Z,19.40
2018-08-18T06:16:09.589Z,19.40
2018-08-18T06:18:42.619Z,19.40
2018-08-18T06:21:14.791Z,19.40
2018-08-18T06:23:47.843Z,19.30
2018-08-18T06:26:20.124Z,19.30
2018-08-18T06:28:52.454Z,19.20
2018-08-18T06:31:24.800Z,19.30
2018-08-18T06:33:57.080Z,19.30
2018-08-18T06:36:29.372Z,19.30
2018-08-18T06:39:01.611Z,19.30
2018-08-18T06:41:33.696Z,19.30
2018-08-18T06:44:06.566Z,19.20
2018-08-18T06:46:38.887Z,19.20
2018-08-18T06:49:11.130Z,19.10
2018-08-18T06:51:43.557Z,19.30
2018-08-18T06:54:15.704Z,19.40
2018-08-18T06:56:47.846Z,19.40
2018-08-18T06:59:20.706Z,19.40
2018-08-18T07:01:52.903Z,19.40
2018-08-18T07:04:28.608Z,19.30
2018-08-18T07:07:00.793Z,19.30
2018-08-18T07:09:32.973Z,19.20
2018-08-18T07:12:05.040Z,19.10
2018-08-18T07:14:37.457Z,19.20
2018-08-18T07:17:09.640Z,19.20
2018-08-18T07:19:41.714Z,19.20
2018-08-18T07:22:18.978Z,19.30
2018-08-18T07:24:51.199Z,19.20
2018-08-18T07:27:23.505Z,19.20
2018-08-18T07:29:55.737Z,19.20
2018-08-18T07:32:30.135Z,19.10
2018-08-18T07:35:02.290Z,19.00
2018-08-18T07:37:35.077Z,19.10
2018-08-18T07:40:08.701Z,19.20
2018-08-18T07:42:41.160Z,19.20
2018-08-18T07:45:13.570Z,19.20
2018-08-18T07:47:45.763Z,19.30
2018-08-18T07:50:18.098Z,19.30
2018-08-18T07:52:50.348Z,19.10
2018-08-18T07:55:22.420Z,19.00
2018-08-18T07:57:59.213Z,19.10
2018-08-18T08:00:33.726Z,19.10
2018-08-18T08:03:06.363Z,19.00
2018-08-18T08:05:38.588Z,19.00
2018-08-18T08:08:11.215Z,18.80
2018-08-18T08:10:43.494Z,18.70
2018-08-18T08:13:16.853Z,18.50
2018-08-18T08:15:48.889Z,18.50
2018-08-18T08:18:21.394Z,18.40
2018-08-18T08:20:53.865Z,18.30
2018-08-18T08:23:26.332Z,18.10
2018-08-18T08:25:58.732Z,18.10
2018-08-18T08:28:30.844Z,17.90
2018-08-18T08:31:02.858Z,18.00
2018-08-18T08:33:40.646Z,18.00
2018-08-18T08:36:16.371Z,18.10
2018-08-18T08:38:58.911Z,18.40
2018-08-18T08:41:33.136Z,18.50
2018-08-18T08:44:05.569Z,18.60
2018-08-18T08:46:38.608Z,18.70
2018-08-18T08:49:11.119Z,18.80
2018-08-18T08:51:43.586Z,18.70
2018-08-18T08:54:15.947Z,18.70
2018-08-18T08:56:48.013Z,18.70
2018-08-18T08:59:20.171Z,18.80
2018-08-18T09:01:52.221Z,18.80
2018-08-18T09:04:24.476Z,18.80
2018-08-18T09:06:56.993Z,18.70
2018-08-18T09:09:29.375Z,18.80
2018-08-18T09:12:01.527Z,18.80
2018-08-18T09:14:35.631Z,18.80
2018-08-18T09:17:07.757Z,18.90
2018-08-18T09:19:39.981Z,18.90
2018-08-18T09:22:12.275Z,18.90
2018-08-18T09:24:44.603Z,19.00
2018-08-18T09:27:16.562Z,19.10
2018-08-18T09:29:49.532Z,19.00
2018-08-18T09:32:21.812Z,18.90
2018-08-18T09:35:27.387Z,18.90
2018-08-18T09:38:02.456Z,18.90
2018-08-18T09:40:34.952Z,19.00
2018-08-18T09:43:12.612Z,19.00
2018-08-18T09:45:44.728Z,19.10
2018-08-18T09:48:16.841Z,19.10
2018-08-18T09:50:49.535Z,19.10
2018-08-18T09:53:22.287Z,19.10
2018-08-18T09:55:54.855Z,19.10
2018-08-18T09:58:26.888Z,19.00
2018-08-18T10:00:58.810Z,19.00
2018-08-18T10:03:30.968Z,18.90
2018-08-18T10:06:03.029Z,18.80
2018-08-18T10:08:35.070Z,18.90
2018-08-18T10:11:07.638Z,18.90
2018-08-18T10:13:39.813Z,18.90
2018-08-18T10:16:13.275Z,18.90
2018-08-18T10:18:50.908Z,18.90
2018-08-18T10:21:23.196Z,18.80
2018-08-18T10:23:55.166Z,18.70
2018-08-18T10:26:27.638Z,18.80
2018-08-18T10:29:15.354Z,18.80
2018-08-18T10:31:51.638Z,18.80
2018-08-18T10:34:24.895Z,18.80
2018-08-18T10:37:05.451Z,18.80
2018-08-18T10:39:39.017Z,18.70
2018-08-18T10:42:14.061Z,18.70
2018-08-18T10:44:51.773Z,18.60
2018-08-18T10:47:25.325Z,18.50
2018-08-18T10:50:06.728Z,18.50
2018-08-18T10:52:48.268Z,18.50
2018-08-18T10:55:20.668Z,18.60
2018-08-18T10:58:05.103Z,18.60
2018-08-18T11:00:37.968Z,18.60
2018-08-18T11:03:10.682Z,18.50
2018-08-18T11:05:42.957Z,18.50
2018-08-18T11:08:15.280Z,18.50
2018-08-18T11:10:47.645Z,18.50
2018-08-18T11:13:19.706Z,18.50
2018-08-18T11:15:51.963Z,18.60
2018-08-18T11:18:26.046Z,18.60
2018-08-18T11:20:58.166Z,18.60
2018-08-18T11:23:30.485Z,18.60
2018-08-18T11:26:03.061Z,18.60
2018-08-18T11:28:35.307Z,18.60
2018-08-18T11:31:07.675Z,18.60
2018-08-18T11:33:44.860Z,18.70
2018-08-18T11:36:17.363Z,18.70
2018-08-18T11:38:49.938Z,18.70
2018-08-18T11:41:22.540Z,18.70
2018-08-18T11:43:55.284Z,18.70
2018-08-18T11:46:27.859Z,18.60
2018-08-18T11:48:59.949Z,18.60
2018-08-18T11:51:36.555Z,18.60
2018-08-18T11:54:09.170Z,18.60
2018-08-18T11:56:45.692Z,18.60
2018-08-18T11:59:18.625Z,18.60
2018-08-18T12:01:53.707Z,18.50
2018-08-18T12:04:26.173Z,18.50
2018-08-18T12:07:01.291Z,18.50
2018-08-18T12:09:33.565Z,18.40
2018-08-18T12:12:06.974Z,18.50
2018-08-18T12:14:39.647Z,18.50
2018-08-18T12:17:12.655Z,18.50
2018-08-18T12:19:46.675Z,18.50
2018-08-18T12:22:18.791Z,18.50
2018-08-18T12:24:55.254Z,18.40
2018-08-18T12:27:27.462Z,18.50
2018-08-18T12:30:01.656Z,18.50
2018-08-18T12:32:34.267Z,18.50
2018-08-18T12:35:06.502Z,18.60
2018-08-18T12:37:38.893Z,18.60
2018-08-18T12:40:14.646Z,18.60
2018-08-18T12:42:47.573Z,18.50
2018-08-18T12:45:19.896Z,18.60
2018-08-18T12:48:03.932Z,18.60
2018-08-18T12:50:35.963Z,18.60
2018-08-18T12:53:08.531Z,18.60
2018-08-18T12:55:41.974Z,18.70
2018-08-18T12:58:15.490Z,18.80
2018-08-18T13:01:21.461Z,18.90
2018-08-18T13:03:53.805Z,19.00
2018-08-18T13:06:27.915Z,19.30
2018-08-18T13:09:00.108Z,19.50
2018-08-18T13:11:32.678Z,19.50
2018-08-18T13:14:06.759Z,19.50
2018-08-18T13:16:39.471Z,19.50
2018-08-18T13:19:12.073Z,19.40
2018-08-18T13:21:44.733Z,19.50
2018-08-18T13:24:17.336Z,19.50
2018-08-18T13:26:50.044Z,19.70
2018-08-18T13:29:23.409Z,19.90
2018-08-18T13:31:56.347Z,20.20
2018-08-18T13:34:36.469Z,20.30
2018-08-18T13:37:09.019Z,20.20
2018-08-18T13:39:43.008Z,20.10
2018-08-18T13:42:24.511Z,20.00
2018-08-18T13:44:57.254Z,19.90
2018-08-18T13:47:30.058Z,19.90
2018-08-18T13:50:10.148Z,20.20
2018-08-18T13:52:47.025Z,20.30
2018-08-18T13:55:20.112Z,20.30
2018-08-18T13:57:52.652Z,20.30
2018-08-18T14:00:24.911Z,20.30
2018-08-18T14:02:57.610Z,20.30
2018-08-18T14:05:32.817Z,20.30
2018-08-18T14:08:06.280Z,20.20
2018-08-18T14:10:38.457Z,20.20
2018-08-18T14:13:10.840Z,20.10
2018-08-18T14:15:48.064Z,20.10
2018-08-18T14:18:20.555Z,20.10
2018-08-18T14:21:06.385Z,20.20
2018-08-18T14:23:38.885Z,20.20
2018-08-18T14:26:11.361Z,20.20
2018-08-18T14:28:43.634Z,20.20
2018-08-18T14:31:15.570Z,20.50
2018-08-18T14:33:47.988Z,20.80
2018-08-18T14:36:20.633Z,21.00
2018-08-18T14:38:52.970Z,21.20
2018-08-18T14:41:55.154Z,21.60
2018-08-18T14:44:28.712Z,22.20
2018-08-18T14:47:01.145Z,22.80
2018-08-18T14:49:33.443Z,23.30
2018-08-18T14:52:06.374Z,23.70
2018-08-18T14:54:39.922Z,24.00
2018-08-18T14:57:12.161Z,24.00
2018-08-18T14:59:44.299Z,24.20
2018-08-18T15:02:16.386Z,23.80
2018-08-18T15:04:49.033Z,23.60
2018-08-18T15:07:22.486Z,23.30
2018-08-18T15:09:54.726Z,23.30
2018-08-18T15:12:26.929Z,23.40
2018-08-18T15:14:59.197Z,23.40
2018-08-18T15:17:31.344Z,23.50
2018-08-18T15:20:03.754Z,23.80
2018-08-18T15:22:37.782Z,23.90
2018-08-18T15:25:10.221Z,23.90
2018-08-18T15:27:42.540Z,24.20
2018-08-18T15:30:15.449Z,24.50
2018-08-18T15:32:47.335Z,24.50
2018-08-18T15:35:20.207Z,24.60
2018-08-18T15:37:52.457Z,24.60
2018-08-18T15:40:25.400Z,24.70
2018-08-18T15:42:58.435Z,24.30
2018-08-18T15:45:31.521Z,24.50
2018-08-18T15:48:05.640Z,24.90
2018-08-18T15:50:53.423Z,25.20
2018-08-18T15:53:34.257Z,25.50
2018-08-18T15:56:07.808Z,25.60
2018-08-18T15:58:40.074Z,25.90
2018-08-18T16:01:12.309Z,25.70
2018-08-18T16:03:44.305Z,25.80
2018-08-18T16:06:16.981Z,25.60
2018-08-18T16:08:49.214Z,25.80
2018-08-18T16:11:22.610Z,25.70
2018-08-18T16:13:54.925Z,25.80
2018-08-18T16:16:27.106Z,26.10
2018-08-18T16:19:04.448Z,26.30
2018-08-18T16:21:37.438Z,26.80
2018-08-18T16:24:10.295Z,27.10
2018-08-18T16:26:42.732Z,27.40
2018-08-18T16:29:13.129Z,27.80
2018-08-18T16:31:43.703Z,28.00
2018-08-18T16:34:14.202Z,28.00
2018-08-18T16:36:48.191Z,28.10
2018-08-18T16:39:20.596Z,27.70
2018-08-18T16:41:53.994Z,27.50
2018-08-18T16:44:24.461Z,27.50
2018-08-18T16:46:56.979Z,27.70
2018-08-18T16:49:29.119Z,27.70
2018-08-18T16:52:02.426Z,27.40
2018-08-18T16:54:34.152Z,27.10
2018-08-18T16:57:06.693Z,27.10
2018-08-18T16:59:38.793Z,27.20
2018-08-18T17:02:20.174Z,27.20
2018-08-18T17:04:52.453Z,27.10
2018-08-18T17:07:28.156Z,27.10
2018-08-18T17:09:58.960Z,26.70
2018-08-18T17:12:32.989Z,27.10
2018-08-18T17:15:03.593Z,27.70
2018-08-18T17:17:35.867Z,27.50
2018-08-18T17:20:09.761Z,27.30
2018-08-18T17:22:43.275Z,27.50
2018-08-18T17:25:13.853Z,27.30
2018-08-18T17:27:44.488Z,27.20
2018-08-18T17:30:15.308Z,27.60
2018-08-18T17:32:46.074Z,27.70
2018-08-18T17:35:18.403Z,28.00
2018-08-18T17:37:48.828Z,28.80
2018-08-18T17:40:19.553Z,28.70
2018-08-18T17:42:51.824Z,28.60
2018-08-18T17:45:27.090Z,28.20
2018-08-18T17:47:59.749Z,28.60
2018-08-18T17:50:32.217Z,29.20
2018-08-18T17:53:04.491Z,29.00
2018-08-18T17:55:36.712Z,29.00
2018-08-18T17:58:08.816Z,29.10
2018-08-18T18:00:41.208Z,29.00
2018-08-18T18:03:13.617Z,29.20
2018-08-18T18:05:46.334Z,29.20
2018-08-18T18:08:20.071Z,28.80
2018-08-18T18:10:52.681Z,28.70
2018-08-18T18:13:28.593Z,29.10
2018-08-18T18:16:02.401Z,29.00
2018-08-18T18:18:38.965Z,28.80
2018-08-18T18:21:11.228Z,28.90
2018-08-18T18:23:44.978Z,28.50
2018-08-18T18:26:18.738Z,28.60
2018-08-18T18:28:51.260Z,29.40
2018-08-18T18:31:24.918Z,29.30
2018-08-18T18:34:02.134Z,29.10
2018-08-18T18:36:35.989Z,29.30
2018-08-18T18:39:09.032Z,29.50
2018-08-18T18:41:42.825Z,29.40
2018-08-18T18:44:15.048Z,28.70
2018-08-18T18:46:47.735Z,28.70
2018-08-18T18:49:29.751Z,28.70
2018-08-18T18:52:02.297Z,29.20
2018-08-18T18:54:34.609Z,29.30
2018-08-18T18:57:08.792Z,29.60
2018-08-18T19:00:00.899Z,29.20
2018-08-18T19:02:40.391Z,29.40
2018-08-18T19:05:21.441Z,29.00
2018-08-18T19:07:59.764Z,29.40
2018-08-18T19:10:32.583Z,29.60
2018-08-18T19:13:04.898Z,28.90
2018-08-18T19:15:37.227Z,28.30
2018-08-18T19:18:11.554Z,28.10
2018-08-18T19:20:44.634Z,27.80
2018-08-18T19:23:17.986Z,27.30
2018-08-18T19:25:51.766Z,26.80
2018-08-18T19:28:25.219Z,27.60
2018-08-18T19:30:57.696Z,28.50
2018-08-18T19:33:30.236Z,29.00
2018-08-18T19:36:02.548Z,29.50
2018-08-18T19:38:35.156Z,29.70
2018-08-18T19:41:08.444Z,30.30
2018-08-18T19:43:41.151Z,30.50
2018-08-18T19:46:14.244Z,30.30
2018-08-18T19:48:47.604Z,30.10
2018-08-18T19:51:19.839Z,30.70
2018-08-18T19:53:52.836Z,30.90
2018-08-18T19:56:25.851Z,31.10
2018-08-18T19:58:58.013Z,31.20
2018-08-18T20:01:31.073Z,31.10
2018-08-18T20:04:18.549Z,30.00
2018-08-18T20:06:50.952Z,30.10
2018-08-18T20:09:23.700Z,30.00
2018-08-18T20:11:56.026Z,30.70
2018-08-18T20:14:28.075Z,30.70
2018-08-18T20:17:01.991Z,30.40
2018-08-18T20:19:34.287Z,30.10
2018-08-18T20:22:07.502Z,30.30
2018-08-18T20:24:39.775Z,30.30
2018-08-18T20:27:12.559Z,30.70
2018-08-18T20:29:45.833Z,31.00
2018-08-18T20:32:18.807Z,31.20
2018-08-18T20:34:51.073Z,30.50
2018-08-18T20:37:23.285Z,29.60
2018-08-18T20:39:55.684Z,30.00
2018-08-18T20:42:32.884Z,29.60
2018-08-18T20:45:05.176Z,29.70
2018-08-18T20:47:39.053Z,30.20
2018-08-18T20:50:12.692Z,30.40
2018-08-18T20:52:45.275Z,30.20
2018-08-18T20:55:17.715Z,30.70
2018-08-18T21:04:19.241Z,30.90
2018-08-18T21:06:51.452Z,31.00
2018-08-18T21:09:33.317Z,30.50
2018-08-18T21:12:05.688Z,30.40
2018-08-18T21:14:39.504Z,30.50
2018-08-18T21:17:11.718Z,30.20
2018-08-18T21:19:46.442Z,30.50
2018-08-18T21:22:19.562Z,30.90
2018-08-18T21:24:52.132Z,31.10
2018-08-18T21:27:24.197Z,30.90
2018-08-18T21:29:58.263Z,29.80
2018-08-18T21:32:30.430Z,30.10
2018-08-18T21:35:04.485Z,30.40
2018-08-18T21:37:36.744Z,30.30
2018-08-18T21:40:10.538Z,30.50
2018-08-18T21:42:42.940Z,30.30
2018-08-18T21:45:15.709Z,30.50
2018-08-18T21:47:48.056Z,30.10
2018-08-18T21:50:20.308Z,29.00
2018-08-18T21:52:52.368Z,29.10
2018-08-18T21:55:24.680Z,29.00
2018-08-18T21:58:00.442Z,29.40
2018-08-18T22:00:37.492Z,29.40
2018-08-18T22:03:10.585Z,29.10
2018-08-18T22:05:42.629Z,29.40
2018-08-18T22:08:15.192Z,29.50
2018-08-18T22:10:51.018Z,29.80
2018-08-18T22:13:23.375Z,30.00
2018-08-18T22:15:55.606Z,30.20
2018-08-18T22:18:27.856Z,29.50
2018-08-18T22:21:00.109Z,29.10
2018-08-18T22:23:32.437Z,29.10
2018-08-18T22:26:08.890Z,29.10
2018-08-18T22:28:41.233Z,29.30
2018-08-18T22:31:14.071Z,28.80
2018-08-18T22:33:46.198Z,29.20
2018-08-18T22:36:18.561Z,29.10
2018-08-18T22:38:50.813Z,29.00
2018-08-18T22:41:23.175Z,29.00
2018-08-18T22:43:55.976Z,28.30
2018-08-18T22:46:28.870Z,28.30
2018-08-18T22:49:01.171Z,27.70
2018-08-18T22:51:33.601Z,27.40
2018-08-18T22:54:05.958Z,27.80
2018-08-18T22:56:39.615Z,27.70
2018-08-18T22:59:11.559Z,27.70
2018-08-18T23:01:43.791Z,27.50
2018-08-18T23:04:29.187Z,27.70
2018-08-18T23:07:02.593Z,27.70
2018-08-18T23:09:34.625Z,27.80
2018-08-18T23:12:08.391Z,27.70
2018-08-18T23:14:40.186Z,27.70
2018-08-18T23:17:11.857Z,27.50
2018-08-18T23:19:43.807Z,27.20
2018-08-18T23:22:25.256Z,26.70
2018-08-18T23:24:59.887Z,26.70
2018-08-18T23:27:31.999Z,26.60
2018-08-18T23:30:04.274Z,26.60
2018-08-18T23:32:34.971Z,26.20
2018-08-18T23:35:07.303Z,26.20
2018-08-18T23:37:38.078Z,25.70
2018-08-18T23:40:10.930Z,25.70
2018-08-18T23:42:43.371Z,26.00
2018-08-18T23:45:15.642Z,26.00
2018-08-18T23:48:07.871Z,25.80
2018-08-18T23:50:41.757Z,25.70
2018-08-18T23:53:17.209Z,25.70
2018-08-18T23:55:56.147Z,25.70
2018-08-18T23:58:28.723Z,25.70
